sensor_id;sensor_type;location;lat;lon;timestamp;P1;durP1;ratioP1;P2;durP2;ratioP2
42244;SDS011;27912;51.828;5.688;2022-07-29T00:02:08;5.10;;;0.50;;
42244;SDS011;27912;51.828;5.688;2022-07-29T00:04:34;2.35;;;0.75;;
42244;SDS011;27912;51.828;5.688;2022-07-29T00:07:00;2.97;;;0.30;;
42244;SDS011;27912;51.828;5.688;2022-07-29T00:09:26;3.80;;;0.55;;
42244;SDS011;27912;51.828;5.688;2022-07-29T00:11:52;2.50;;;0.30;;
42244;SDS011;27912;51.828;5.688;2022-07-29T00:14:18;1.85;;;0.30;;
42244;SDS011;27912;51.828;5.688;2022-07-29T00:16:44;1.70;;;0.30;;
42244;SDS011;27912;51.828;5.688;2022-07-29T00:19:09;2.15;;;0.30;;
42244;SDS011;27912;51.828;5.688;2022-07-29T00:21:35;3.20;;;0.30;;
42244;SDS011;27912;51.828;5.688;2022-07-29T00:24:00;2.10;;;0.40;;
42244;SDS011;27912;51.828;5.688;2022-07-29T00:26:26;2.00;;;0.40;;
42244;SDS011;27912;51.828;5.688;2022-07-29T00:28:56;2.55;;;0.50;;
42244;SDS011;27912;51.828;5.688;2022-07-29T00:31:23;2.95;;;0.40;;
42244;SDS011;27912;51.828;5.688;2022-07-29T00:33:48;1.83;;;0.30;;
42244;SDS011;27912;51.828;5.688;2022-07-29T00:36:14;1.52;;;0.40;;
42244;SDS011;27912;51.828;5.688;2022-07-29T00:38:39;1.55;;;0.30;;
42244;SDS011;27912;51.828;5.688;2022-07-29T00:41:09;3.53;;;0.40;;
42244;SDS011;27912;51.828;5.688;2022-07-29T00:43:34;1.73;;;0.30;;
42244;SDS011;27912;51.828;5.688;2022-07-29T00:46:00;2.17;;;0.38;;
42244;SDS011;27912;51.828;5.688;2022-07-29T00:48:26;2.88;;;0.40;;
42244;SDS011;27912;51.828;5.688;2022-07-29T00:50:52;1.52;;;0.40;;
42244;SDS011;27912;51.828;5.688;2022-07-29T00:53:17;3.85;;;0.40;;
42244;SDS011;27912;51.828;5.688;2022-07-29T00:55:45;5.72;;;0.30;;
42244;SDS011;27912;51.828;5.688;2022-07-29T00:58:11;2.55;;;0.30;;
42244;SDS011;27912;51.828;5.688;2022-07-29T01:00:38;1.75;;;0.40;;
42244;SDS011;27912;51.828;5.688;2022-07-29T01:03:05;1.90;;;0.30;;
42244;SDS011;27912;51.828;5.688;2022-07-29T01:05:31;2.05;;;0.50;;
42244;SDS011;27912;51.828;5.688;2022-07-29T01:07:57;1.70;;;0.30;;
42244;SDS011;27912;51.828;5.688;2022-07-29T01:10:24;1.58;;;0.52;;
42244;SDS011;27912;51.828;5.688;2022-07-29T01:12:51;2.40;;;0.40;;
42244;SDS011;27912;51.828;5.688;2022-07-29T01:15:18;2.97;;;0.68;;
42244;SDS011;27912;51.828;5.688;2022-07-29T01:17:45;1.95;;;0.95;;
42244;SDS011;27912;51.828;5.688;2022-07-29T01:20:25;1.90;;;0.30;;
42244;SDS011;27912;51.828;5.688;2022-07-29T01:31:28;3.47;;;0.47;;
42244;SDS011;27912;51.828;5.688;2022-07-29T01:34:29;2.63;;;0.35;;
42244;SDS011;27912;51.828;5.688;2022-07-29T01:37:18;2.30;;;0.30;;
42244;SDS011;27912;51.828;5.688;2022-07-29T01:39:49;2.40;;;0.32;;
42244;SDS011;27912;51.828;5.688;2022-07-29T01:42:27;2.13;;;0.40;;
42244;SDS011;27912;51.828;5.688;2022-07-29T01:45:23;1.58;;;0.50;;
42244;SDS011;27912;51.828;5.688;2022-07-29T01:47:54;5.72;;;0.45;;
42244;SDS011;27912;51.828;5.688;2022-07-29T01:50:46;3.35;;;0.60;;
42244;SDS011;27912;51.828;5.688;2022-07-29T01:56:41;4.40;;;0.50;;
42244;SDS011;27912;51.828;5.688;2022-07-29T01:59:08;1.20;;;0.55;;
42244;SDS011;27912;51.828;5.688;2022-07-29T02:01:35;2.10;;;0.50;;
42244;SDS011;27912;51.828;5.688;2022-07-29T02:04:02;2.70;;;0.50;;
42244;SDS011;27912;51.828;5.688;2022-07-29T02:06:30;1.40;;;0.60;;
42244;SDS011;27912;51.828;5.688;2022-07-29T02:08:58;3.13;;;1.13;;
42244;SDS011;27912;51.828;5.688;2022-07-29T02:11:25;3.03;;;0.60;;
42244;SDS011;27912;51.828;5.688;2022-07-29T02:13:52;4.65;;;0.80;;
42244;SDS011;27912;51.828;5.688;2022-07-29T02:16:21;2.47;;;0.70;;
42244;SDS011;27912;51.828;5.688;2022-07-29T02:18:50;3.75;;;0.80;;
42244;SDS011;27912;51.828;5.688;2022-07-29T02:21:19;3.45;;;1.00;;
42244;SDS011;27912;51.828;5.688;2022-07-29T02:23:49;3.78;;;0.82;;
42244;SDS011;27912;51.828;5.688;2022-07-29T02:26:16;3.30;;;0.70;;
42244;SDS011;27912;51.828;5.688;2022-07-29T02:28:44;3.58;;;1.30;;
42244;SDS011;27912;51.828;5.688;2022-07-29T02:31:10;3.13;;;0.93;;
42244;SDS011;27912;51.828;5.688;2022-07-29T02:33:37;2.13;;;0.77;;
42244;SDS011;27912;51.828;5.688;2022-07-29T02:36:05;2.95;;;0.82;;
42244;SDS011;27912;51.828;5.688;2022-07-29T02:38:31;1.83;;;0.75;;
42244;SDS011;27912;51.828;5.688;2022-07-29T02:41:27;4.28;;;1.67;;
42244;SDS011;27912;51.828;5.688;2022-07-29T02:44:05;3.60;;;1.00;;
42244;SDS011;27912;51.828;5.688;2022-07-29T02:46:35;3.35;;;1.23;;
42244;SDS011;27912;51.828;5.688;2022-07-29T02:51:49;3.58;;;1.00;;
42244;SDS011;27912;51.828;5.688;2022-07-29T02:54:23;4.75;;;1.27;;
42244;SDS011;27912;51.828;5.688;2022-07-29T02:57:24;4.65;;;1.35;;
42244;SDS011;27912;51.828;5.688;2022-07-29T03:00:00;4.15;;;0.90;;
42244;SDS011;27912;51.828;5.688;2022-07-29T03:02:29;3.78;;;1.08;;
42244;SDS011;27912;51.828;5.688;2022-07-29T03:05:06;2.63;;;1.13;;
42244;SDS011;27912;51.828;5.688;2022-07-29T03:07:35;3.88;;;1.30;;
42244;SDS011;27912;51.828;5.688;2022-07-29T03:10:02;3.40;;;1.60;;
42244;SDS011;27912;51.828;5.688;2022-07-29T03:12:29;5.13;;;1.67;;
42244;SDS011;27912;51.828;5.688;2022-07-29T03:14:56;7.35;;;1.90;;
42244;SDS011;27912;51.828;5.688;2022-07-29T03:17:22;6.03;;;1.50;;
42244;SDS011;27912;51.828;5.688;2022-07-29T03:19:48;2.50;;;1.25;;
42244;SDS011;27912;51.828;5.688;2022-07-29T03:22:14;3.47;;;1.58;;
42244;SDS011;27912;51.828;5.688;2022-07-29T03:24:40;5.07;;;1.63;;
42244;SDS011;27912;51.828;5.688;2022-07-29T03:27:06;3.75;;;1.67;;
42244;SDS011;27912;51.828;5.688;2022-07-29T03:29:31;5.43;;;1.58;;
42244;SDS011;27912;51.828;5.688;2022-07-29T03:31:57;6.13;;;2.05;;
42244;SDS011;27912;51.828;5.688;2022-07-29T03:34:23;4.00;;;1.58;;
42244;SDS011;27912;51.828;5.688;2022-07-29T03:36:49;6.68;;;1.88;;
42244;SDS011;27912;51.828;5.688;2022-07-29T03:39:15;5.95;;;1.73;;
42244;SDS011;27912;51.828;5.688;2022-07-29T03:41:47;3.40;;;1.33;;
42244;SDS011;27912;51.828;5.688;2022-07-29T03:44:16;4.50;;;1.30;;
42244;SDS011;27912;51.828;5.688;2022-07-29T03:46:44;4.28;;;1.80;;
42244;SDS011;27912;51.828;5.688;2022-07-29T03:49:11;3.72;;;1.30;;
42244;SDS011;27912;51.828;5.688;2022-07-29T03:51:39;3.33;;;1.40;;
42244;SDS011;27912;51.828;5.688;2022-07-29T03:54:04;6.60;;;1.77;;
42244;SDS011;27912;51.828;5.688;2022-07-29T03:56:31;2.88;;;1.40;;
42244;SDS011;27912;51.828;5.688;2022-07-29T03:58:59;5.30;;;1.35;;
42244;SDS011;27912;51.828;5.688;2022-07-29T04:01:27;7.25;;;1.60;;
42244;SDS011;27912;51.828;5.688;2022-07-29T04:03:54;3.10;;;1.38;;
42244;SDS011;27912;51.828;5.688;2022-07-29T04:06:19;4.85;;;2.08;;
42244;SDS011;27912;51.828;5.688;2022-07-29T04:08:45;5.18;;;1.50;;
42244;SDS011;27912;51.828;5.688;2022-07-29T04:11:11;3.83;;;1.35;;
42244;SDS011;27912;51.828;5.688;2022-07-29T04:13:37;4.82;;;1.50;;
42244;SDS011;27912;51.828;5.688;2022-07-29T04:16:03;5.72;;;1.63;;
42244;SDS011;27912;51.828;5.688;2022-07-29T04:18:29;3.58;;;1.75;;
42244;SDS011;27912;51.828;5.688;2022-07-29T04:20:54;5.10;;;1.80;;
42244;SDS011;27912;51.828;5.688;2022-07-29T04:23:20;4.65;;;1.55;;
42244;SDS011;27912;51.828;5.688;2022-07-29T04:25:45;4.38;;;1.40;;
42244;SDS011;27912;51.828;5.688;2022-07-29T04:28:11;4.03;;;1.45;;
42244;SDS011;27912;51.828;5.688;2022-07-29T04:30:36;4.20;;;1.77;;
42244;SDS011;27912;51.828;5.688;2022-07-29T04:33:04;2.67;;;1.40;;
42244;SDS011;27912;51.828;5.688;2022-07-29T04:35:35;3.65;;;1.50;;
42244;SDS011;27912;51.828;5.688;2022-07-29T04:38:02;4.32;;;1.80;;
42244;SDS011;27912;51.828;5.688;2022-07-29T04:40:29;3.88;;;1.80;;
42244;SDS011;27912;51.828;5.688;2022-07-29T04:42:55;4.28;;;1.90;;
42244;SDS011;27912;51.828;5.688;2022-07-29T04:45:21;3.22;;;1.45;;
42244;SDS011;27912;51.828;5.688;2022-07-29T04:47:46;3.63;;;1.38;;
42244;SDS011;27912;51.828;5.688;2022-07-29T04:50:12;3.70;;;1.73;;
42244;SDS011;27912;51.828;5.688;2022-07-29T04:52:38;4.43;;;1.70;;
42244;SDS011;27912;51.828;5.688;2022-07-29T04:55:04;3.70;;;1.90;;
42244;SDS011;27912;51.828;5.688;2022-07-29T04:57:30;2.50;;;1.85;;
42244;SDS011;27912;51.828;5.688;2022-07-29T04:59:56;2.13;;;1.33;;
42244;SDS011;27912;51.828;5.688;2022-07-29T05:02:21;5.18;;;1.83;;
42244;SDS011;27912;51.828;5.688;2022-07-29T05:04:47;4.35;;;2.47;;
42244;SDS011;27912;51.828;5.688;2022-07-29T05:07:13;6.75;;;2.00;;
42244;SDS011;27912;51.828;5.688;2022-07-29T05:09:39;4.47;;;1.52;;
42244;SDS011;27912;51.828;5.688;2022-07-29T05:12:05;5.85;;;1.88;;
42244;SDS011;27912;51.828;5.688;2022-07-29T05:14:31;5.05;;;1.90;;
42244;SDS011;27912;51.828;5.688;2022-07-29T05:16:57;5.32;;;1.77;;
42244;SDS011;27912;51.828;5.688;2022-07-29T05:19:23;3.50;;;1.80;;
42244;SDS011;27912;51.828;5.688;2022-07-29T05:21:48;4.85;;;1.90;;
42244;SDS011;27912;51.828;5.688;2022-07-29T05:24:14;6.78;;;1.80;;
42244;SDS011;27912;51.828;5.688;2022-07-29T05:26:41;6.25;;;2.35;;
42244;SDS011;27912;51.828;5.688;2022-07-29T05:29:06;4.50;;;2.60;;
42244;SDS011;27912;51.828;5.688;2022-07-29T05:31:32;4.18;;;1.83;;
42244;SDS011;27912;51.828;5.688;2022-07-29T05:33:58;3.60;;;1.83;;
42244;SDS011;27912;51.828;5.688;2022-07-29T05:36:24;6.53;;;1.88;;
42244;SDS011;27912;51.828;5.688;2022-07-29T05:38:49;5.55;;;2.05;;
42244;SDS011;27912;51.828;5.688;2022-07-29T05:41:16;3.47;;;2.00;;
42244;SDS011;27912;51.828;5.688;2022-07-29T05:43:42;5.47;;;2.30;;
42244;SDS011;27912;51.828;5.688;2022-07-29T05:46:08;4.57;;;2.20;;
42244;SDS011;27912;51.828;5.688;2022-07-29T05:48:34;4.80;;;2.03;;
42244;SDS011;27912;51.828;5.688;2022-07-29T05:50:59;4.53;;;1.95;;
42244;SDS011;27912;51.828;5.688;2022-07-29T05:53:25;4.07;;;1.92;;
42244;SDS011;27912;51.828;5.688;2022-07-29T05:55:51;2.97;;;1.88;;
42244;SDS011;27912;51.828;5.688;2022-07-29T05:58:17;2.53;;;1.77;;
42244;SDS011;27912;51.828;5.688;2022-07-29T06:00:42;2.25;;;1.35;;
42244;SDS011;27912;51.828;5.688;2022-07-29T06:03:08;4.90;;;1.95;;
42244;SDS011;27912;51.828;5.688;2022-07-29T06:05:34;3.45;;;1.85;;
42244;SDS011;27912;51.828;5.688;2022-07-29T06:07:59;4.05;;;1.77;;
42244;SDS011;27912;51.828;5.688;2022-07-29T06:10:25;5.00;;;1.60;;
42244;SDS011;27912;51.828;5.688;2022-07-29T06:12:51;2.75;;;1.60;;
42244;SDS011;27912;51.828;5.688;2022-07-29T06:15:17;2.80;;;1.67;;
42244;SDS011;27912;51.828;5.688;2022-07-29T06:17:42;5.15;;;2.05;;
42244;SDS011;27912;51.828;5.688;2022-07-29T06:20:08;8.55;;;2.28;;
42244;SDS011;27912;51.828;5.688;2022-07-29T06:22:35;5.38;;;1.70;;
42244;SDS011;27912;51.828;5.688;2022-07-29T06:25:01;3.17;;;1.83;;
42244;SDS011;27912;51.828;5.688;2022-07-29T06:27:27;8.20;;;2.63;;
42244;SDS011;27912;51.828;5.688;2022-07-29T06:29:52;4.90;;;2.15;;
42244;SDS011;27912;51.828;5.688;2022-07-29T06:32:18;3.90;;;1.90;;
42244;SDS011;27912;51.828;5.688;2022-07-29T06:34:44;5.00;;;2.28;;
42244;SDS011;27912;51.828;5.688;2022-07-29T06:37:09;6.72;;;2.50;;
42244;SDS011;27912;51.828;5.688;2022-07-29T06:39:35;4.50;;;2.35;;
42244;SDS011;27912;51.828;5.688;2022-07-29T06:42:01;3.30;;;1.48;;
42244;SDS011;27912;51.828;5.688;2022-07-29T06:44:28;6.10;;;2.00;;
42244;SDS011;27912;51.828;5.688;2022-07-29T06:46:54;3.60;;;2.00;;
42244;SDS011;27912;51.828;5.688;2022-07-29T06:49:20;3.28;;;1.63;;
42244;SDS011;27912;51.828;5.688;2022-07-29T06:51:46;9.75;;;2.25;;
42244;SDS011;27912;51.828;5.688;2022-07-29T06:54:12;5.38;;;1.88;;
42244;SDS011;27912;51.828;5.688;2022-07-29T06:56:38;3.22;;;2.10;;
42244;SDS011;27912;51.828;5.688;2022-07-29T06:59:06;5.25;;;2.10;;
42244;SDS011;27912;51.828;5.688;2022-07-29T07:01:33;3.63;;;1.70;;
42244;SDS011;27912;51.828;5.688;2022-07-29T07:03:58;6.15;;;2.00;;
42244;SDS011;27912;51.828;5.688;2022-07-29T07:06:24;4.72;;;1.58;;
42244;SDS011;27912;51.828;5.688;2022-07-29T07:08:49;6.18;;;2.15;;
42244;SDS011;27912;51.828;5.688;2022-07-29T07:11:15;6.03;;;1.80;;
42244;SDS011;27912;51.828;5.688;2022-07-29T07:13:40;5.28;;;1.92;;
42244;SDS011;27912;51.828;5.688;2022-07-29T07:16:06;3.78;;;1.83;;
42244;SDS011;27912;51.828;5.688;2022-07-29T07:18:31;9.40;;;1.83;;
42244;SDS011;27912;51.828;5.688;2022-07-29T07:20:57;5.70;;;1.63;;
42244;SDS011;27912;51.828;5.688;2022-07-29T07:23:23;7.75;;;1.52;;
42244;SDS011;27912;51.828;5.688;2022-07-29T07:25:48;3.33;;;1.52;;
42244;SDS011;27912;51.828;5.688;2022-07-29T07:28:14;4.10;;;1.50;;
42244;SDS011;27912;51.828;5.688;2022-07-29T07:30:39;3.63;;;1.70;;
42244;SDS011;27912;51.828;5.688;2022-07-29T07:33:05;5.20;;;1.35;;
42244;SDS011;27912;51.828;5.688;2022-07-29T07:35:31;3.88;;;1.45;;
42244;SDS011;27912;51.828;5.688;2022-07-29T07:37:57;3.20;;;1.60;;
42244;SDS011;27912;51.828;5.688;2022-07-29T07:40:22;4.25;;;1.27;;
42244;SDS011;27912;51.828;5.688;2022-07-29T07:42:48;4.00;;;1.83;;
42244;SDS011;27912;51.828;5.688;2022-07-29T07:45:14;2.83;;;1.42;;
42244;SDS011;27912;51.828;5.688;2022-07-29T07:47:39;3.50;;;1.45;;
42244;SDS011;27912;51.828;5.688;2022-07-29T07:50:07;4.28;;;1.30;;
42244;SDS011;27912;51.828;5.688;2022-07-29T07:52:34;3.20;;;1.33;;
42244;SDS011;27912;51.828;5.688;2022-07-29T07:55:10;3.08;;;1.38;;
42244;SDS011;27912;51.828;5.688;2022-07-29T07:57:35;5.15;;;1.25;;
42244;SDS011;27912;51.828;5.688;2022-07-29T08:00:01;3.83;;;1.45;;
42244;SDS011;27912;51.828;5.688;2022-07-29T08:02:27;2.83;;;1.60;;
42244;SDS011;27912;51.828;5.688;2022-07-29T08:04:53;4.82;;;1.38;;
42244;SDS011;27912;51.828;5.688;2022-07-29T08:07:18;5.68;;;1.50;;
42244;SDS011;27912;51.828;5.688;2022-07-29T08:09:44;4.32;;;1.55;;
42244;SDS011;27912;51.828;5.688;2022-07-29T08:12:09;3.10;;;1.55;;
42244;SDS011;27912;51.828;5.688;2022-07-29T08:14:35;5.18;;;1.35;;
42244;SDS011;27912;51.828;5.688;2022-07-29T08:17:00;2.55;;;1.40;;
42244;SDS011;27912;51.828;5.688;2022-07-29T08:19:26;4.85;;;1.27;;
42244;SDS011;27912;51.828;5.688;2022-07-29T08:21:52;4.22;;;1.30;;
42244;SDS011;27912;51.828;5.688;2022-07-29T08:24:18;2.67;;;1.40;;
42244;SDS011;27912;51.828;5.688;2022-07-29T08:27:02;5.30;;;1.83;;
42244;SDS011;27912;51.828;5.688;2022-07-29T08:29:28;4.72;;;1.33;;
42244;SDS011;27912;51.828;5.688;2022-07-29T08:31:53;3.88;;;1.35;;
42244;SDS011;27912;51.828;5.688;2022-07-29T08:34:19;3.97;;;1.48;;
42244;SDS011;27912;51.828;5.688;2022-07-29T08:36:44;4.95;;;1.27;;
42244;SDS011;27912;51.828;5.688;2022-07-29T08:39:10;6.50;;;1.67;;
42244;SDS011;27912;51.828;5.688;2022-07-29T08:41:35;5.22;;;1.80;;
42244;SDS011;27912;51.828;5.688;2022-07-29T08:44:01;7.95;;;1.80;;
42244;SDS011;27912;51.828;5.688;2022-07-29T08:46:27;4.90;;;1.65;;
42244;SDS011;27912;51.828;5.688;2022-07-29T08:48:52;5.93;;;1.52;;
42244;SDS011;27912;51.828;5.688;2022-07-29T08:51:20;3.30;;;1.38;;
42244;SDS011;27912;51.828;5.688;2022-07-29T08:53:46;5.35;;;1.50;;
42244;SDS011;27912;51.828;5.688;2022-07-29T08:56:15;3.50;;;1.25;;
42244;SDS011;27912;51.828;5.688;2022-07-29T08:58:42;2.97;;;1.27;;
42244;SDS011;27912;51.828;5.688;2022-07-29T09:01:08;14.85;;;3.75;;
42244;SDS011;27912;51.828;5.688;2022-07-29T09:03:36;9.07;;;1.23;;
42244;SDS011;27912;51.828;5.688;2022-07-29T09:06:02;4.25;;;1.40;;
42244;SDS011;27912;51.828;5.688;2022-07-29T09:08:30;6.85;;;1.95;;
42244;SDS011;27912;51.828;5.688;2022-07-29T09:10:57;4.28;;;1.40;;
42244;SDS011;27912;51.828;5.688;2022-07-29T09:13:23;5.57;;;1.45;;
42244;SDS011;27912;51.828;5.688;2022-07-29T09:15:49;4.90;;;1.63;;
42244;SDS011;27912;51.828;5.688;2022-07-29T09:21:15;4.07;;;1.45;;
42244;SDS011;27912;51.828;5.688;2022-07-29T09:26:41;5.18;;;1.55;;
42244;SDS011;27912;51.828;5.688;2022-07-29T09:29:09;3.80;;;1.48;;
42244;SDS011;27912;51.828;5.688;2022-07-29T09:31:47;4.95;;;1.60;;
42244;SDS011;27912;51.828;5.688;2022-07-29T09:34:16;3.22;;;1.23;;
42244;SDS011;27912;51.828;5.688;2022-07-29T09:36:49;3.42;;;1.52;;
42244;SDS011;27912;51.828;5.688;2022-07-29T09:39:26;4.90;;;2.22;;
42244;SDS011;27912;51.828;5.688;2022-07-29T09:41:54;4.55;;;1.65;;
42244;SDS011;27912;51.828;5.688;2022-07-29T09:44:22;3.63;;;1.35;;
42244;SDS011;27912;51.828;5.688;2022-07-29T09:47:02;3.67;;;1.40;;
42244;SDS011;27912;51.828;5.688;2022-07-29T09:49:32;5.15;;;1.45;;
42244;SDS011;27912;51.828;5.688;2022-07-29T09:52:03;6.07;;;1.33;;
42244;SDS011;27912;51.828;5.688;2022-07-29T09:54:29;5.85;;;1.15;;
42244;SDS011;27912;51.828;5.688;2022-07-29T09:57:01;4.90;;;1.30;;
42244;SDS011;27912;51.828;5.688;2022-07-29T09:59:31;2.60;;;1.20;;
42244;SDS011;27912;51.828;5.688;2022-07-29T10:01:57;4.70;;;1.15;;
42244;SDS011;27912;51.828;5.688;2022-07-29T10:04:23;3.25;;;1.08;;
42244;SDS011;27912;51.828;5.688;2022-07-29T10:06:57;6.22;;;1.40;;
42244;SDS011;27912;51.828;5.688;2022-07-29T10:09:24;5.20;;;1.67;;
42244;SDS011;27912;51.828;5.688;2022-07-29T10:12:03;2.75;;;1.10;;
42244;SDS011;27912;51.828;5.688;2022-07-29T10:14:38;2.90;;;1.17;;
42244;SDS011;27912;51.828;5.688;2022-07-29T10:17:26;3.17;;;1.38;;
42244;SDS011;27912;51.828;5.688;2022-07-29T10:19:51;3.92;;;1.35;;
42244;SDS011;27912;51.828;5.688;2022-07-29T10:22:17;5.18;;;1.65;;
42244;SDS011;27912;51.828;5.688;2022-07-29T10:24:43;2.90;;;1.48;;
42244;SDS011;27912;51.828;5.688;2022-07-29T10:27:09;3.25;;;1.90;;
42244;SDS011;27912;51.828;5.688;2022-07-29T10:29:35;4.97;;;1.55;;
42244;SDS011;27912;51.828;5.688;2022-07-29T10:32:29;5.03;;;1.80;;
42244;SDS011;27912;51.828;5.688;2022-07-29T10:46:34;3.20;;;1.38;;
42244;SDS011;27912;51.828;5.688;2022-07-29T10:54:39;6.35;;;1.20;;
42244;SDS011;27912;51.828;5.688;2022-07-29T11:05:08;5.45;;;0.90;;
42244;SDS011;27912;51.828;5.688;2022-07-29T11:10:49;4.18;;;0.90;;
42244;SDS011;27912;51.828;5.688;2022-07-29T11:13:58;4.63;;;0.70;;
42244;SDS011;27912;51.828;5.688;2022-07-29T11:16:11;4.15;;;0.60;;
42244;SDS011;27912;51.828;5.688;2022-07-29T11:21:38;2.45;;;0.50;;
42244;SDS011;27912;51.828;5.688;2022-07-29T11:27:12;2.78;;;0.68;;
42244;SDS011;27912;51.828;5.688;2022-07-29T11:32:18;2.50;;;0.50;;
42244;SDS011;27912;51.828;5.688;2022-07-29T11:34:47;4.10;;;1.02;;
42244;SDS011;27912;51.828;5.688;2022-07-29T11:37:14;3.42;;;0.98;;
42244;SDS011;27912;51.828;5.688;2022-07-29T11:47:30;3.42;;;0.80;;
42244;SDS011;27912;51.828;5.688;2022-07-29T11:49:56;3.00;;;0.75;;
42244;SDS011;27912;51.828;5.688;2022-07-29T11:52:23;5.25;;;0.75;;
42244;SDS011;27912;51.828;5.688;2022-07-29T11:55:08;3.80;;;0.60;;
42244;SDS011;27912;51.828;5.688;2022-07-29T11:57:37;3.10;;;0.70;;
42244;SDS011;27912;51.828;5.688;2022-07-29T12:00:11;2.50;;;0.70;;
42244;SDS011;27912;51.828;5.688;2022-07-29T12:02:42;3.75;;;1.10;;
42244;SDS011;27912;51.828;5.688;2022-07-29T12:05:08;5.13;;;0.93;;
42244;SDS011;27912;51.828;5.688;2022-07-29T12:07:38;2.30;;;0.82;;
42244;SDS011;27912;51.828;5.688;2022-07-29T12:10:05;3.47;;;0.85;;
42244;SDS011;27912;51.828;5.688;2022-07-29T12:12:31;3.70;;;1.05;;
42244;SDS011;27912;51.828;5.688;2022-07-29T12:14:57;4.78;;;0.98;;
42244;SDS011;27912;51.828;5.688;2022-07-29T12:17:34;3.75;;;0.82;;
42244;SDS011;27912;51.828;5.688;2022-07-29T12:20:02;5.05;;;0.75;;
42244;SDS011;27912;51.828;5.688;2022-07-29T12:22:30;3.28;;;0.80;;
42244;SDS011;27912;51.828;5.688;2022-07-29T12:25:02;3.70;;;0.82;;
42244;SDS011;27912;51.828;5.688;2022-07-29T12:27:30;2.13;;;0.90;;
42244;SDS011;27912;51.828;5.688;2022-07-29T12:29:58;2.10;;;0.82;;
42244;SDS011;27912;51.828;5.688;2022-07-29T12:32:33;5.78;;;0.90;;
42244;SDS011;27912;51.828;5.688;2022-07-29T12:34:59;4.55;;;0.77;;
42244;SDS011;27912;51.828;5.688;2022-07-29T12:37:47;2.72;;;0.85;;
42244;SDS011;27912;51.828;5.688;2022-07-29T12:40:15;3.13;;;0.90;;
42244;SDS011;27912;51.828;5.688;2022-07-29T12:42:53;2.55;;;0.80;;
42244;SDS011;27912;51.828;5.688;2022-07-29T12:45:32;4.35;;;0.65;;
42244;SDS011;27912;51.828;5.688;2022-07-29T12:47:57;4.93;;;0.57;;
42244;SDS011;27912;51.828;5.688;2022-07-29T12:50:23;2.90;;;0.60;;
42244;SDS011;27912;51.828;5.688;2022-07-29T12:52:50;2.80;;;0.70;;
42244;SDS011;27912;51.828;5.688;2022-07-29T12:55:15;1.90;;;0.50;;
42244;SDS011;27912;51.828;5.688;2022-07-29T12:58:01;2.67;;;0.50;;
42244;SDS011;27912;51.828;5.688;2022-07-29T13:00:27;3.17;;;0.50;;
42244;SDS011;27912;51.828;5.688;2022-07-29T13:02:57;5.22;;;0.60;;
42244;SDS011;27912;51.828;5.688;2022-07-29T13:05:24;3.28;;;0.50;;
42244;SDS011;27912;51.828;5.688;2022-07-29T13:08:16;1.38;;;0.40;;
42244;SDS011;27912;51.828;5.688;2022-07-29T13:10:45;5.63;;;0.50;;
42244;SDS011;27912;51.828;5.688;2022-07-29T13:13:12;2.15;;;0.52;;
42244;SDS011;27912;51.828;5.688;2022-07-29T13:15:43;2.13;;;0.50;;
42244;SDS011;27912;51.828;5.688;2022-07-29T13:20:57;2.42;;;0.60;;
42244;SDS011;27912;51.828;5.688;2022-07-29T13:23:36;2.03;;;0.60;;
42244;SDS011;27912;51.828;5.688;2022-07-29T13:26:05;2.83;;;0.50;;
42244;SDS011;27912;51.828;5.688;2022-07-29T13:28:36;2.30;;;0.40;;
42244;SDS011;27912;51.828;5.688;2022-07-29T13:31:02;3.80;;;0.60;;
42244;SDS011;27912;51.828;5.688;2022-07-29T13:33:28;2.75;;;0.65;;
42244;SDS011;27912;51.828;5.688;2022-07-29T13:35:53;4.00;;;0.60;;
42244;SDS011;27912;51.828;5.688;2022-07-29T13:38:19;3.45;;;0.68;;
42244;SDS011;27912;51.828;5.688;2022-07-29T13:40:44;8.40;;;1.27;;
42244;SDS011;27912;51.828;5.688;2022-07-29T13:43:10;3.60;;;0.65;;
42244;SDS011;27912;51.828;5.688;2022-07-29T13:45:37;3.95;;;1.13;;
42244;SDS011;27912;51.828;5.688;2022-07-29T13:48:02;3.90;;;0.70;;
42244;SDS011;27912;51.828;5.688;2022-07-29T13:50:28;6.18;;;0.70;;
42244;SDS011;27912;51.828;5.688;2022-07-29T13:52:54;3.40;;;0.60;;
42244;SDS011;27912;51.828;5.688;2022-07-29T13:55:19;2.75;;;0.50;;
42244;SDS011;27912;51.828;5.688;2022-07-29T13:57:45;3.10;;;0.70;;
42244;SDS011;27912;51.828;5.688;2022-07-29T14:00:12;2.28;;;0.50;;
42244;SDS011;27912;51.828;5.688;2022-07-29T14:02:38;3.60;;;0.65;;
42244;SDS011;27912;51.828;5.688;2022-07-29T14:05:04;4.22;;;0.50;;
42244;SDS011;27912;51.828;5.688;2022-07-29T14:07:30;3.17;;;0.70;;
42244;SDS011;27912;51.828;5.688;2022-07-29T14:09:56;2.83;;;0.65;;
42244;SDS011;27912;51.828;5.688;2022-07-29T14:12:21;5.57;;;0.68;;
42244;SDS011;27912;51.828;5.688;2022-07-29T14:14:47;4.40;;;0.80;;
42244;SDS011;27912;51.828;5.688;2022-07-29T14:17:13;3.03;;;0.70;;
42244;SDS011;27912;51.828;5.688;2022-07-29T14:19:39;3.92;;;0.70;;
42244;SDS011;27912;51.828;5.688;2022-07-29T14:22:05;1.77;;;0.57;;
42244;SDS011;27912;51.828;5.688;2022-07-29T14:24:33;2.25;;;0.60;;
42244;SDS011;27912;51.828;5.688;2022-07-29T14:26:59;2.15;;;0.60;;
42244;SDS011;27912;51.828;5.688;2022-07-29T14:29:24;3.58;;;0.50;;
42244;SDS011;27912;51.828;5.688;2022-07-29T14:31:50;4.75;;;0.60;;
42244;SDS011;27912;51.828;5.688;2022-07-29T14:34:16;3.65;;;0.50;;
42244;SDS011;27912;51.828;5.688;2022-07-29T14:36:41;3.08;;;0.52;;
42244;SDS011;27912;51.828;5.688;2022-07-29T14:39:07;2.28;;;0.60;;
42244;SDS011;27912;51.828;5.688;2022-07-29T14:41:32;3.63;;;0.60;;
42244;SDS011;27912;51.828;5.688;2022-07-29T14:43:58;3.60;;;0.70;;
42244;SDS011;27912;51.828;5.688;2022-07-29T14:46:27;2.42;;;0.73;;
42244;SDS011;27912;51.828;5.688;2022-07-29T14:48:53;2.55;;;0.57;;
42244;SDS011;27912;51.828;5.688;2022-07-29T14:51:19;5.13;;;0.70;;
42244;SDS011;27912;51.828;5.688;2022-07-29T14:53:44;3.38;;;0.70;;
42244;SDS011;27912;51.828;5.688;2022-07-29T14:56:10;4.28;;;0.70;;
42244;SDS011;27912;51.828;5.688;2022-07-29T14:58:36;5.15;;;0.60;;
42244;SDS011;27912;51.828;5.688;2022-07-29T15:01:01;3.00;;;0.60;;
42244;SDS011;27912;51.828;5.688;2022-07-29T15:03:27;4.15;;;0.80;;
42244;SDS011;27912;51.828;5.688;2022-07-29T15:05:53;4.43;;;0.60;;
42244;SDS011;27912;51.828;5.688;2022-07-29T15:08:19;2.75;;;0.70;;
42244;SDS011;27912;51.828;5.688;2022-07-29T15:10:44;2.13;;;0.60;;
42244;SDS011;27912;51.828;5.688;2022-07-29T15:13:10;2.72;;;0.60;;
42244;SDS011;27912;51.828;5.688;2022-07-29T15:15:36;2.50;;;0.60;;
42244;SDS011;27912;51.828;5.688;2022-07-29T15:18:01;3.58;;;0.73;;
42244;SDS011;27912;51.828;5.688;2022-07-29T15:20:27;5.00;;;0.90;;
42244;SDS011;27912;51.828;5.688;2022-07-29T15:22:53;5.55;;;0.70;;
42244;SDS011;27912;51.828;5.688;2022-07-29T15:25:20;4.80;;;0.93;;
42244;SDS011;27912;51.828;5.688;2022-07-29T15:27:47;2.10;;;0.52;;
42244;SDS011;27912;51.828;5.688;2022-07-29T15:30:12;3.13;;;0.60;;
42244;SDS011;27912;51.828;5.688;2022-07-29T15:32:40;4.32;;;0.50;;
42244;SDS011;27912;51.828;5.688;2022-07-29T15:35:06;15.63;;;0.80;;
42244;SDS011;27912;51.828;5.688;2022-07-29T15:37:31;2.13;;;0.50;;
42244;SDS011;27912;51.828;5.688;2022-07-29T15:39:59;1.98;;;0.50;;
42244;SDS011;27912;51.828;5.688;2022-07-29T15:42:27;3.72;;;0.50;;
42244;SDS011;27912;51.828;5.688;2022-07-29T15:44:53;3.85;;;0.32;;
42244;SDS011;27912;51.828;5.688;2022-07-29T15:47:22;4.05;;;0.50;;
42244;SDS011;27912;51.828;5.688;2022-07-29T15:49:47;3.25;;;0.50;;
42244;SDS011;27912;51.828;5.688;2022-07-29T15:52:14;2.42;;;0.57;;
42244;SDS011;27912;51.828;5.688;2022-07-29T15:54:43;4.00;;;0.50;;
42244;SDS011;27912;51.828;5.688;2022-07-29T15:57:09;4.32;;;0.40;;
42244;SDS011;27912;51.828;5.688;2022-07-29T15:59:35;2.70;;;0.70;;
42244;SDS011;27912;51.828;5.688;2022-07-29T16:02:00;1.92;;;0.55;;